Авиационная погода в Стамбуле

Регион: 
Погода METAR: 
LTFM 271150Z VRB04KT CAVOK 16/05 Q1019 NOSIG RMK RWY17L 19004KT 110V260 RWY34L 17004KT 120V210 RWY16R 19004KT 130V250 RWY36 22003KT 120V260 RWY18 VRB03KT
Время наблюдения
2021-02-27T11:50:00Z
Температура C
16.0
Точка росы
5.0
Направление ветра
0
Скорость ветра (узлы)
4
Метео видимость
6.21
Явления погоды
Условия полета
VFR